sensor_id;sensor_type;location;lat;lon;timestamp;pressure;altitude;pressure_sealevel;temperature;humidity
38630;BME280;24384;51.988;4.644;2023-05-25T00:01:35;102715.50;;;11.24;81.67
38630;BME280;24384;51.988;4.644;2023-05-25T00:04:01;102707.63;;;11.11;82.44
38630;BME280;24384;51.988;4.644;2023-05-25T00:06:28;102710.28;;;11.11;82.18
38630;BME280;24384;51.988;4.644;2023-05-25T00:08:54;102712.91;;;11.11;82.15
38630;BME280;24384;51.988;4.644;2023-05-25T00:11:21;102717.31;;;11.16;80.79
38630;BME280;24384;51.988;4.644;2023-05-25T00:13:48;102718.22;;;11.07;81.34
38630;BME280;24384;51.988;4.644;2023-05-25T00:16:14;102717.41;;;10.96;81.40
38630;BME280;24384;51.988;4.644;2023-05-25T00:18:40;102720.06;;;10.91;81.47
38630;BME280;24384;51.988;4.644;2023-05-25T00:21:05;102707.75;;;10.90;81.68
38630;BME280;24384;51.988;4.644;2023-05-25T00:23:31;102716.56;;;10.81;82.17
38630;BME280;24384;51.988;4.644;2023-05-25T00:25:57;102720.09;;;10.85;82.56
38630;BME280;24384;51.988;4.644;2023-05-25T00:28:22;102722.78;;;10.72;83.92
38630;BME280;24384;51.988;4.644;2023-05-25T00:30:48;102719.22;;;10.77;84.07
38630;BME280;24384;51.988;4.644;2023-05-25T00:33:14;102718.31;;;10.84;83.84
38630;BME280;24384;51.988;4.644;2023-05-25T00:35:39;102712.13;;;10.92;83.94
38630;BME280;24384;51.988;4.644;2023-05-25T00:38:11;102710.34;;;10.98;84.40
38630;BME280;24384;51.988;4.644;2023-05-25T00:40:38;102713.78;;;11.10;84.14
38630;BME280;24384;51.988;4.644;2023-05-25T00:43:05;102712.91;;;11.10;84.88
38630;BME280;24384;51.988;4.644;2023-05-25T00:45:33;102719.09;;;11.04;85.52
38630;BME280;24384;51.988;4.644;2023-05-25T00:47:59;102720.84;;;11.11;85.01
38630;BME280;24384;51.988;4.644;2023-05-25T00:50:43;102722.63;;;11.06;84.63
38630;BME280;24384;51.988;4.644;2023-05-25T00:53:11;102727.03;;;11.04;85.13
38630;BME280;24384;51.988;4.644;2023-05-25T00:55:47;102718.28;;;10.95;85.43
38630;BME280;24384;51.988;4.644;2023-05-25T00:58:16;102723.56;;;10.90;86.80
38630;BME280;24384;51.988;4.644;2023-05-25T01:00:44;102724.44;;;10.89;86.90
38630;BME280;24384;51.988;4.644;2023-05-25T01:03:14;102727.06;;;10.95;86.95
38630;BME280;24384;51.988;4.644;2023-05-25T01:05:44;102728.00;;;10.91;86.43
38630;BME280;24384;51.988;4.644;2023-05-25T01:08:13;102726.22;;;10.90;86.86
38630;BME280;24384;51.988;4.644;2023-05-25T01:10:43;102732.38;;;10.90;87.44
38630;BME280;24384;51.988;4.644;2023-05-25T01:13:11;102736.78;;;10.90;87.30
38630;BME280;24384;51.988;4.644;2023-05-25T01:15:38;102740.31;;;10.80;87.12
38630;BME280;24384;51.988;4.644;2023-05-25T01:18:05;102735.09;;;10.64;86.86
38630;BME280;24384;51.988;4.644;2023-05-25T01:20:30;102741.31;;;10.51;88.59
38630;BME280;24384;51.988;4.644;2023-05-25T01:25:42;102739.56;;;10.41;90.21
38630;BME280;24384;51.988;4.644;2023-05-25T01:28:16;102743.09;;;10.29;90.15
38630;BME280;24384;51.988;4.644;2023-05-25T01:30:45;102741.31;;;10.26;89.96
38630;BME280;24384;51.988;4.644;2023-05-25T01:33:11;102752.75;;;10.28;90.33
38630;BME280;24384;51.988;4.644;2023-05-25T01:35:39;102745.72;;;10.27;90.99
38630;BME280;24384;51.988;4.644;2023-05-25T01:38:05;102744.84;;;10.39;90.63
38630;BME280;24384;51.988;4.644;2023-05-25T01:40:31;102749.22;;;10.55;90.06
38630;BME280;24384;51.988;4.644;2023-05-25T01:42:56;102756.22;;;10.66;90.02
38630;BME280;24384;51.988;4.644;2023-05-25T01:45:21;102750.06;;;10.62;90.46
38630;BME280;24384;51.988;4.644;2023-05-25T01:48:05;102756.19;;;10.72;89.80
38630;BME280;24384;51.988;4.644;2023-05-25T01:50:53;102755.31;;;10.70;90.30
38630;BME280;24384;51.988;4.644;2023-05-25T01:53:29;102754.47;;;10.71;90.49
38630;BME280;24384;51.988;4.644;2023-05-25T01:56:00;102756.19;;;10.75;89.99
38630;BME280;24384;51.988;4.644;2023-05-25T01:58:27;102758.81;;;10.77;89.69
38630;BME280;24384;51.988;4.644;2023-05-25T02:00:57;102757.91;;;10.84;89.92
38630;BME280;24384;51.988;4.644;2023-05-25T02:03:23;102759.69;;;10.82;90.10
38630;BME280;24384;51.988;4.644;2023-05-25T02:05:48;102758.78;;;10.86;89.90
38630;BME280;24384;51.988;4.644;2023-05-25T02:08:14;102761.44;;;10.77;90.15
38630;BME280;24384;51.988;4.644;2023-05-25T02:10:39;102761.44;;;10.80;90.01
38630;BME280;24384;51.988;4.644;2023-05-25T02:13:04;102763.19;;;10.82;89.52
38630;BME280;24384;51.988;4.644;2023-05-25T02:15:32;102760.56;;;10.79;90.36
38630;BME280;24384;51.988;4.644;2023-05-25T02:17:57;102764.06;;;10.86;90.08
38630;BME280;24384;51.988;4.644;2023-05-25T02:20:24;102768.50;;;10.79;91.42
38630;BME280;24384;51.988;4.644;2023-05-25T02:22:50;102763.19;;;10.82;91.83
38630;BME280;24384;51.988;4.644;2023-05-25T02:25:15;102759.69;;;10.88;91.76
38630;BME280;24384;51.988;4.644;2023-05-25T02:27:40;102758.69;;;11.06;91.22
38630;BME280;24384;51.988;4.644;2023-05-25T02:30:07;102765.72;;;11.10;91.21
38630;BME280;24384;51.988;4.644;2023-05-25T02:32:32;102770.16;;;11.05;91.94
38630;BME280;24384;51.988;4.644;2023-05-25T02:34:58;102770.16;;;11.05;91.58
38630;BME280;24384;51.988;4.644;2023-05-25T02:37:23;102771.03;;;11.05;92.04
38630;BME280;24384;51.988;4.644;2023-05-25T02:39:48;102773.63;;;11.18;91.74
38630;BME280;24384;51.988;4.644;2023-05-25T02:42:14;102772.75;;;11.16;91.72
38630;BME280;24384;51.988;4.644;2023-05-25T02:44:39;102771.00;;;11.16;92.07
38630;BME280;24384;51.988;4.644;2023-05-25T02:47:04;102773.66;;;11.13;91.76
38630;BME280;24384;51.988;4.644;2023-05-25T02:49:30;102770.13;;;11.17;91.83
38630;BME280;24384;51.988;4.644;2023-05-25T02:51:57;102763.09;;;11.13;91.25
38630;BME280;24384;51.988;4.644;2023-05-25T02:54:22;102772.81;;;11.05;91.14
38630;BME280;24384;51.988;4.644;2023-05-25T02:56:48;102771.94;;;10.98;91.21
38630;BME280;24384;51.988;4.644;2023-05-25T02:59:13;102778.97;;;11.05;90.56
38630;BME280;24384;51.988;4.644;2023-05-25T03:01:38;102784.28;;;10.96;90.13
38630;BME280;24384;51.988;4.644;2023-05-25T03:04:05;102779.00;;;10.91;90.32
38630;BME280;24384;51.988;4.644;2023-05-25T03:06:30;102781.69;;;10.78;90.62
38630;BME280;24384;51.988;4.644;2023-05-25T03:08:57;102779.94;;;10.73;90.78
38630;BME280;24384;51.988;4.644;2023-05-25T03:11:22;102782.59;;;10.64;90.88
38630;BME280;24384;51.988;4.644;2023-05-25T03:13:48;102785.22;;;10.66;90.00
38630;BME280;24384;51.988;4.644;2023-05-25T03:16:14;102799.31;;;10.66;90.49
38630;BME280;24384;51.988;4.644;2023-05-25T03:18:39;102793.16;;;10.63;90.17
38630;BME280;24384;51.988;4.644;2023-05-25T03:21:04;102794.06;;;10.63;90.53
38630;BME280;24384;51.988;4.644;2023-05-25T03:23:30;102794.94;;;10.51;90.94
38630;BME280;24384;51.988;4.644;2023-05-25T03:25:55;102792.31;;;10.50;91.13
38630;BME280;24384;51.988;4.644;2023-05-25T03:28:20;102791.47;;;10.40;91.25
38630;BME280;24384;51.988;4.644;2023-05-25T03:30:45;102795.88;;;10.39;91.23
38630;BME280;24384;51.988;4.644;2023-05-25T03:33:11;102790.59;;;10.41;91.21
38630;BME280;24384;51.988;4.644;2023-05-25T03:35:37;102796.72;;;10.43;91.82
38630;BME280;24384;51.988;4.644;2023-05-25T03:38:03;102787.94;;;10.13;90.53
38630;BME280;24384;51.988;4.644;2023-05-25T03:40:28;102792.31;;;10.13;91.16
38630;BME280;24384;51.988;4.644;2023-05-25T03:42:53;102785.28;;;9.98;92.68
38630;BME280;24384;51.988;4.644;2023-05-25T03:45:19;102785.28;;;10.06;91.87
38630;BME280;24384;51.988;4.644;2023-05-25T03:47:44;102786.16;;;10.06;91.88
38630;BME280;24384;51.988;4.644;2023-05-25T03:50:10;102779.13;;;9.93;91.77
38630;BME280;24384;51.988;4.644;2023-05-25T03:52:37;102788.81;;;10.08;91.27
38630;BME280;24384;51.988;4.644;2023-05-25T03:55:02;102796.72;;;10.18;91.26
38630;BME280;24384;51.988;4.644;2023-05-25T03:57:29;102799.34;;;10.26;90.66
38630;BME280;24384;51.988;4.644;2023-05-25T03:59:54;102797.56;;;10.28;90.81
38630;BME280;24384;51.988;4.644;2023-05-25T04:02:19;102797.56;;;10.25;91.35
38630;BME280;24384;51.988;4.644;2023-05-25T04:04:45;102812.53;;;10.23;91.69
38630;BME280;24384;51.988;4.644;2023-05-25T04:07:10;102809.03;;;10.30;91.69
38630;BME280;24384;51.988;4.644;2023-05-25T04:09:36;102807.25;;;10.25;91.55
38630;BME280;24384;51.988;4.644;2023-05-25T04:12:01;102813.44;;;10.34;91.65
38630;BME280;24384;51.988;4.644;2023-05-25T04:14:26;102809.06;;;10.43;91.78
38630;BME280;24384;51.988;4.644;2023-05-25T04:16:52;102812.56;;;10.46;91.71
38630;BME280;24384;51.988;4.644;2023-05-25T04:19:17;102809.03;;;10.52;91.61
38630;BME280;24384;51.988;4.644;2023-05-25T04:21:42;102809.00;;;10.63;91.02
38630;BME280;24384;51.988;4.644;2023-05-25T04:24:08;102808.13;;;10.62;91.38
38630;BME280;24384;51.988;4.644;2023-05-25T04:26:33;102815.16;;;10.62;90.86
38630;BME280;24384;51.988;4.644;2023-05-25T04:28:58;102816.88;;;10.75;90.92
38630;BME280;24384;51.988;4.644;2023-05-25T04:31:26;102815.13;;;10.85;90.48
38630;BME280;24384;51.988;4.644;2023-05-25T04:33:51;102827.41;;;10.86;90.99
38630;BME280;24384;51.988;4.644;2023-05-25T04:36:16;102824.78;;;10.87;91.34
38630;BME280;24384;51.988;4.644;2023-05-25T04:38:42;102826.53;;;10.90;91.66
38630;BME280;24384;51.988;4.644;2023-05-25T04:41:12;102840.56;;;11.07;91.13
38630;BME280;24384;51.988;4.644;2023-05-25T04:43:38;102830.88;;;11.14;91.23
38630;BME280;24384;51.988;4.644;2023-05-25T04:46:03;102829.06;;;11.24;90.92
38630;BME280;24384;51.988;4.644;2023-05-25T04:48:29;102837.84;;;11.24;90.51
38630;BME280;24384;51.988;4.644;2023-05-25T04:50:58;102838.75;;;11.23;91.02
38630;BME280;24384;51.988;4.644;2023-05-25T04:53:27;102841.31;;;11.40;90.55
38630;BME280;24384;51.988;4.644;2023-05-25T04:55:52;102840.38;;;11.47;90.55
38630;BME280;24384;51.988;4.644;2023-05-25T04:58:21;102837.69;;;11.57;89.99
38630;BME280;24384;51.988;4.644;2023-05-25T05:00:46;102840.34;;;11.55;90.20
38630;BME280;24384;51.988;4.644;2023-05-25T05:03:11;102840.25;;;11.75;89.14
38630;BME280;24384;51.988;4.644;2023-05-25T05:05:37;102845.50;;;11.78;88.63
38630;BME280;24384;51.988;4.644;2023-05-25T05:08:03;102849.88;;;11.87;88.03
38630;BME280;24384;51.988;4.644;2023-05-25T05:10:28;102851.59;;;12.00;87.86
38630;BME280;24384;51.988;4.644;2023-05-25T05:12:53;102855.03;;;12.10;87.43
38630;BME280;24384;51.988;4.644;2023-05-25T05:15:19;102847.81;;;12.29;86.56
38630;BME280;24384;51.988;4.644;2023-05-25T05:17:44;102850.41;;;12.35;86.41
38630;BME280;24384;51.988;4.644;2023-05-25T05:20:09;102856.47;;;12.51;85.82
38630;BME280;24384;51.988;4.644;2023-05-25T05:22:36;102859.81;;;12.69;85.00
38630;BME280;24384;51.988;4.644;2023-05-25T05:25:02;102848.19;;;12.85;83.89
38630;BME280;24384;51.988;4.644;2023-05-25T05:27:28;102853.34;;;12.99;83.30
38630;BME280;24384;51.988;4.644;2023-05-25T05:29:53;102848.84;;;13.07;83.20
38630;BME280;24384;51.988;4.644;2023-05-25T05:32:19;102855.84;;;13.13;82.69
38630;BME280;24384;51.988;4.644;2023-05-25T05:34:45;102851.28;;;13.24;82.66
38630;BME280;24384;51.988;4.644;2023-05-25T05:37:12;102862.59;;;13.40;82.64
38630;BME280;24384;51.988;4.644;2023-05-25T05:39:37;102860.69;;;13.53;82.13
38630;BME280;24384;51.988;4.644;2023-05-25T05:42:02;102865.84;;;13.63;82.68
38630;BME280;24384;51.988;4.644;2023-05-25T05:44:29;102865.81;;;13.66;80.74
38630;BME280;24384;51.988;4.644;2023-05-25T05:46:55;102869.25;;;13.71;80.23
38630;BME280;24384;51.988;4.644;2023-05-25T05:49:25;102874.22;;;13.95;78.98
38630;BME280;24384;51.988;4.644;2023-05-25T05:51:51;102874.09;;;14.05;78.04
38630;BME280;24384;51.988;4.644;2023-05-25T05:54:16;102873.09;;;14.12;78.65
38630;BME280;24384;51.988;4.644;2023-05-25T05:56:41;102879.94;;;14.25;78.17
38630;BME280;24384;51.988;4.644;2023-05-25T05:59:06;102881.69;;;14.26;76.23
38630;BME280;24384;51.988;4.644;2023-05-25T06:01:32;102878.00;;;14.37;76.82
38630;BME280;24384;51.988;4.644;2023-05-25T06:03:57;102883.22;;;14.43;77.24
38630;BME280;24384;51.988;4.644;2023-05-25T06:06:23;102892.03;;;14.45;77.25
38630;BME280;24384;51.988;4.644;2023-05-25T06:08:48;102893.88;;;14.41;76.81
38630;BME280;24384;51.988;4.644;2023-05-25T06:11:13;102897.91;;;14.64;76.09
38630;BME280;24384;51.988;4.644;2023-05-25T06:13:39;102897.75;;;14.73;75.72
38630;BME280;24384;51.988;4.644;2023-05-25T06:16:04;102897.66;;;14.79;74.85
38630;BME280;24384;51.988;4.644;2023-05-25T06:18:30;102896.44;;;14.97;75.83
38630;BME280;24384;51.988;4.644;2023-05-25T06:20:55;102903.22;;;15.14;76.27
38630;BME280;24384;51.988;4.644;2023-05-25T06:23:20;102898.06;;;15.06;75.11
38630;BME280;24384;51.988;4.644;2023-05-25T06:25:47;102905.31;;;14.96;73.71
38630;BME280;24384;51.988;4.644;2023-05-25T06:28:12;102902.78;;;14.89;73.38
38630;BME280;24384;51.988;4.644;2023-05-25T06:30:37;102893.38;;;14.72;74.13
38630;BME280;24384;51.988;4.644;2023-05-25T06:33:03;102899.44;;;14.79;74.55
38630;BME280;24384;51.988;4.644;2023-05-25T06:35:28;102902.81;;;14.87;74.52
38630;BME280;24384;51.988;4.644;2023-05-25T06:37:54;102902.59;;;14.99;74.44
38630;BME280;24384;51.988;4.644;2023-05-25T06:40:19;102902.94;;;15.28;73.98
38630;BME280;24384;51.988;4.644;2023-05-25T06:42:44;102907.03;;;15.44;71.91
38630;BME280;24384;51.988;4.644;2023-05-25T06:45:10;102904.91;;;15.62;71.72
38630;BME280;24384;51.988;4.644;2023-05-25T06:47:38;102909.19;;;15.67;71.22
38630;BME280;24384;51.988;4.644;2023-05-25T06:50:04;102911.72;;;15.73;70.46
38630;BME280;24384;51.988;4.644;2023-05-25T06:52:30;102917.75;;;15.83;71.65
38630;BME280;24384;51.988;4.644;2023-05-25T06:54:56;102924.72;;;15.89;70.91
38630;BME280;24384;51.988;4.644;2023-05-25T06:57:24;102922.44;;;15.70;72.63
38630;BME280;24384;51.988;4.644;2023-05-25T06:59:50;102923.31;;;15.72;71.75
38630;BME280;24384;51.988;4.644;2023-05-25T07:02:16;102916.41;;;15.62;71.70
38630;BME280;24384;51.988;4.644;2023-05-25T07:04:42;102927.34;;;15.48;70.89
38630;BME280;24384;51.988;4.644;2023-05-25T07:07:08;102930.22;;;15.37;74.70
38630;BME280;24384;51.988;4.644;2023-05-25T07:09:33;102933.72;;;15.39;73.37
38630;BME280;24384;51.988;4.644;2023-05-25T07:11:58;102936.22;;;15.47;73.24
38630;BME280;24384;51.988;4.644;2023-05-25T07:14:24;102935.78;;;15.69;73.30
38630;BME280;24384;51.988;4.644;2023-05-25T07:16:49;102944.88;;;15.58;72.27
38630;BME280;24384;51.988;4.644;2023-05-25T07:19:16;102938.63;;;16.02;71.77
38630;BME280;24384;51.988;4.644;2023-05-25T07:21:42;102944.19;;;16.30;69.81
38630;BME280;24384;51.988;4.644;2023-05-25T07:24:07;102945.66;;;16.04;68.99
38630;BME280;24384;51.988;4.644;2023-05-25T07:26:33;102947.34;;;16.10;70.33
38630;BME280;24384;51.988;4.644;2023-05-25T07:28:59;102938.88;;;16.30;70.45
38630;BME280;24384;51.988;4.644;2023-05-25T07:31:24;102950.53;;;16.24;68.53
38630;BME280;24384;51.988;4.644;2023-05-25T07:33:50;102945.06;;;16.31;70.02
38630;BME280;24384;51.988;4.644;2023-05-25T07:36:16;102945.22;;;16.24;67.90
38630;BME280;24384;51.988;4.644;2023-05-25T07:38:41;102938.13;;;16.23;68.08
38630;BME280;24384;51.988;4.644;2023-05-25T07:41:06;102939.03;;;16.24;69.11
38630;BME280;24384;51.988;4.644;2023-05-25T07:43:32;102946.94;;;16.27;69.38
38630;BME280;24384;51.988;4.644;2023-05-25T07:45:57;102945.69;;;16.42;70.15
38630;BME280;24384;51.988;4.644;2023-05-25T07:48:22;102953.31;;;16.56;68.85
38630;BME280;24384;51.988;4.644;2023-05-25T07:50:48;102944.38;;;16.94;67.72
38630;BME280;24384;51.988;4.644;2023-05-25T07:53:13;102943.72;;;17.19;67.32
38630;BME280;24384;51.988;4.644;2023-05-25T07:55:38;102949.34;;;17.08;66.94
38630;BME280;24384;51.988;4.644;2023-05-25T07:58:04;102961.13;;;17.01;68.74
38630;BME280;24384;51.988;4.644;2023-05-25T08:00:31;102960.25;;;16.99;69.06
38630;BME280;24384;51.988;4.644;2023-05-25T08:02:56;102963.69;;;17.04;68.08
38630;BME280;24384;51.988;4.644;2023-05-25T08:05:22;102963.81;;;17.32;65.66
38630;BME280;24384;51.988;4.644;2023-05-25T08:07:47;102958.16;;;17.75;64.86
38630;BME280;24384;51.988;4.644;2023-05-25T08:10:12;102964.19;;;18.11;64.06
38630;BME280;24384;51.988;4.644;2023-05-25T08:12:38;102970.69;;;18.02;64.97
38630;BME280;24384;51.988;4.644;2023-05-25T08:15:04;102973.78;;;17.88;64.41
38630;BME280;24384;51.988;4.644;2023-05-25T08:17:29;102971.53;;;18.04;65.81
38630;BME280;24384;51.988;4.644;2023-05-25T08:19:54;102968.06;;;18.31;64.13
38630;BME280;24384;51.988;4.644;2023-05-25T08:22:20;102971.44;;;18.36;63.34
38630;BME280;24384;51.988;4.644;2023-05-25T08:24:45;102978.28;;;18.16;62.89
38630;BME280;24384;51.988;4.644;2023-05-25T08:27:11;102970.03;;;18.52;60.74
38630;BME280;24384;51.988;4.644;2023-05-25T08:29:36;102972.00;;;19.01;61.78
38630;BME280;24384;51.988;4.644;2023-05-25T08:32:01;102980.50;;;19.37;60.46
38630;BME280;24384;51.988;4.644;2023-05-25T08:34:26;102975.34;;;19.56;58.61
38630;BME280;24384;51.988;4.644;2023-05-25T08:36:53;102974.72;;;18.99;59.13
38630;BME280;24384;51.988;4.644;2023-05-25T08:39:18;102985.53;;;19.21;59.65
38630;BME280;24384;51.988;4.644;2023-05-25T08:41:44;102982.91;;;19.20;56.98
38630;BME280;24384;51.988;4.644;2023-05-25T08:44:10;102986.25;;;18.73;58.97
38630;BME280;24384;51.988;4.644;2023-05-25T08:46:36;102989.09;;;18.68;56.95
38630;BME280;24384;51.988;4.644;2023-05-25T08:49:09;102984.75;;;18.37;58.00
38630;BME280;24384;51.988;4.644;2023-05-25T08:51:36;102992.47;;;17.88;60.04
38630;BME280;24384;51.988;4.644;2023-05-25T08:54:12;102984.69;;;17.49;63.18
38630;BME280;24384;51.988;4.644;2023-05-25T08:56:48;102987.56;;;17.09;64.51
38630;BME280;24384;51.988;4.644;2023-05-25T09:02:27;102990.78;;;16.86;64.87
38630;BME280;24384;51.988;4.644;2023-05-25T09:04:57;102993.09;;;17.01;63.02
38630;BME280;24384;51.988;4.644;2023-05-25T09:07:24;102991.75;;;16.83;64.66
38630;BME280;24384;51.988;4.644;2023-05-25T09:09:50;102992.56;;;16.85;64.42
38630;BME280;24384;51.988;4.644;2023-05-25T09:12:17;102994.00;;;17.00;64.34
38630;BME280;24384;51.988;4.644;2023-05-25T09:14:43;102987.22;;;16.85;66.52
38630;BME280;24384;51.988;4.644;2023-05-25T09:17:13;102988.34;;;17.12;64.92
38630;BME280;24384;51.988;4.644;2023-05-25T09:19:39;102991.38;;;17.31;63.16
38630;BME280;24384;51.988;4.644;2023-05-25T09:22:04;103000.06;;;17.40;62.41
38630;BME280;24384;51.988;4.644;2023-05-25T09:24:30;102987.81;;;17.64;61.92
38630;BME280;24384;51.988;4.644;2023-05-25T09:26:55;102988.56;;;17.69;62.95
38630;BME280;24384;51.988;4.644;2023-05-25T09:29:20;102992.16;;;17.68;63.43
38630;BME280;24384;51.988;4.644;2023-05-25T09:31:46;102983.25;;;17.69;61.67
38630;BME280;24384;51.988;4.644;2023-05-25T09:34:12;102982.00;;;17.18;64.04
38630;BME280;24384;51.988;4.644;2023-05-25T09:36:38;102989.50;;;17.02;62.33
38630;BME280;24384;51.988;4.644;2023-05-25T09:39:07;102987.97;;;17.91;60.92
38630;BME280;24384;51.988;4.644;2023-05-25T09:41:33;102972.94;;;18.45;60.64
38630;BME280;24384;51.988;4.644;2023-05-25T09:43:58;102966.59;;;19.02;62.94
38630;BME280;24384;51.988;4.644;2023-05-25T09:46:24;102972.88;;;19.26;63.11
38630;BME280;24384;51.988;4.644;2023-05-25T09:48:50;102978.94;;;19.06;61.08
38630;BME280;24384;51.988;4.644;2023-05-25T09:51:17;102979.84;;;18.78;61.28
38630;BME280;24384;51.988;4.644;2023-05-25T09:53:42;102984.50;;;18.17;64.40
38630;BME280;24384;51.988;4.644;2023-05-25T09:56:10;102983.91;;;18.07;62.63
38630;BME280;24384;51.988;4.644;2023-05-25T09:58:35;102988.63;;;18.27;63.67
38630;BME280;24384;51.988;4.644;2023-05-25T10:01:01;102988.53;;;18.58;59.23
38630;BME280;24384;51.988;4.644;2023-05-25T10:03:28;102983.38;;;19.06;58.37
38630;BME280;24384;51.988;4.644;2023-05-25T10:05:53;102980.16;;;19.21;58.28
38630;BME280;24384;51.988;4.644;2023-05-25T10:08:19;102978.78;;;19.60;52.81
38630;BME280;24384;51.988;4.644;2023-05-25T10:10:47;102978.38;;;19.71;56.46
38630;BME280;24384;51.988;4.644;2023-05-25T10:13:14;102986.53;;;20.15;52.22
38630;BME280;24384;51.988;4.644;2023-05-25T10:15:43;102983.03;;;20.57;52.56
38630;BME280;24384;51.988;4.644;2023-05-25T10:18:11;102974.34;;;20.95;49.08
38630;BME280;24384;51.988;4.644;2023-05-25T10:20:38;102973.44;;;21.56;48.41
38630;BME280;24384;51.988;4.644;2023-05-25T10:23:10;102964.72;;;21.51;43.27
38630;BME280;24384;51.988;4.644;2023-05-25T10:25:43;102973.88;;;20.63;48.95
38630;BME280;24384;51.988;4.644;2023-05-25T10:28:28;102971.38;;;20.58;47.46
38630;BME280;24384;51.988;4.644;2023-05-25T10:30:58;102978.38;;;20.62;49.24
38630;BME280;24384;51.988;4.644;2023-05-25T10:33:24;102991.69;;;20.42;48.75
38630;BME280;24384;51.988;4.644;2023-05-25T10:35:50;102985.47;;;20.41;49.34
38630;BME280;24384;51.988;4.644;2023-05-25T10:38:17;102992.00;;;20.34;52.20
38630;BME280;24384;51.988;4.644;2023-05-25T10:40:45;102989.75;;;20.01;51.18
38630;BME280;24384;51.988;4.644;2023-05-25T10:43:19;102992.41;;;20.47;49.76
38630;BME280;24384;51.988;4.644;2023-05-25T10:45:47;102992.56;;;20.64;51.05
38630;BME280;24384;51.988;4.644;2023-05-25T10:48:13;102995.47;;;20.37;50.15
38630;BME280;24384;51.988;4.644;2023-05-25T10:50:39;102989.56;;;20.28;50.57
38630;BME280;24384;51.988;4.644;2023-05-25T10:53:06;102996.94;;;20.45;51.33
38630;BME280;24384;51.988;4.644;2023-05-25T10:55:59;102996.25;;;20.39;49.62
38630;BME280;24384;51.988;4.644;2023-05-25T10:58:26;103001.31;;;20.47;50.41
38630;BME280;24384;51.988;4.644;2023-05-25T11:01:05;102996.66;;;20.74;49.66
38630;BME280;24384;51.988;4.644;2023-05-25T11:06:08;103001.69;;;20.38;49.32
38630;BME280;24384;51.988;4.644;2023-05-25T11:08:55;103001.56;;;20.19;50.07
38630;BME280;24384;51.988;4.644;2023-05-25T11:11:21;102993.69;;;20.14;51.03
38630;BME280;24384;51.988;4.644;2023-05-25T11:13:48;102996.50;;;19.88;51.88
38630;BME280;24384;51.988;4.644;2023-05-25T11:16:30;102991.03;;;19.91;53.75
38630;BME280;24384;51.988;4.644;2023-05-25T11:19:01;103000.53;;;19.99;53.71
38630;BME280;24384;51.988;4.644;2023-05-25T11:23:57;102998.63;;;20.25;51.51
38630;BME280;24384;51.988;4.644;2023-05-25T11:26:27;102989.28;;;20.35;51.92
38630;BME280;24384;51.988;4.644;2023-05-25T11:28:54;102984.75;;;19.92;52.23
38630;BME280;24384;51.988;4.644;2023-05-25T11:31:21;102986.97;;;19.80;52.55
38630;BME280;24384;51.988;4.644;2023-05-25T11:33:54;102986.16;;;19.53;52.82
38630;BME280;24384;51.988;4.644;2023-05-25T11:36:21;102976.84;;;19.14;53.27
38630;BME280;24384;51.988;4.644;2023-05-25T11:38:47;102977.06;;;19.33;53.89
38630;BME280;24384;51.988;4.644;2023-05-25T11:41:20;102983.34;;;19.32;56.07
38630;BME280;24384;51.988;4.644;2023-05-25T11:43:49;102976.19;;;19.33;55.27
38630;BME280;24384;51.988;4.644;2023-05-25T11:46:19;102973.13;;;19.44;55.89
38630;BME280;24384;51.988;4.644;2023-05-25T11:48:49;102971.34;;;19.19;55.52
38630;BME280;24384;51.988;4.644;2023-05-25T11:51:16;102963.69;;;19.08;54.24
38630;BME280;24384;51.988;4.644;2023-05-25T11:53:42;102972.72;;;19.31;53.75
38630;BME280;24384;51.988;4.644;2023-05-25T11:56:08;102975.91;;;19.41;51.61
38630;BME280;24384;51.988;4.644;2023-05-25T11:58:33;102971.63;;;19.60;51.82
38630;BME280;24384;51.988;4.644;2023-05-25T12:01:16;102975.06;;;19.64;51.28
38630;BME280;24384;51.988;4.644;2023-05-25T12:03:42;102970.16;;;19.75;51.44
38630;BME280;24384;51.988;4.644;2023-05-25T12:06:08;102969.78;;;19.86;52.32
38630;BME280;24384;51.988;4.644;2023-05-25T12:08:34;102970.28;;;19.72;51.84
38630;BME280;24384;51.988;4.644;2023-05-25T12:11:00;102970.16;;;19.75;51.77
38630;BME280;24384;51.988;4.644;2023-05-25T12:13:25;102981.88;;;19.73;53.17
38630;BME280;24384;51.988;4.644;2023-05-25T12:15:53;102970.06;;;19.78;52.67
38630;BME280;24384;51.988;4.644;2023-05-25T12:18:19;102976.09;;;19.85;50.56
38630;BME280;24384;51.988;4.644;2023-05-25T12:20:45;102979.50;;;19.89;51.92
38630;BME280;24384;51.988;4.644;2023-05-25T12:23:11;102973.06;;;19.94;51.08
38630;BME280;24384;51.988;4.644;2023-05-25T12:25:36;102973.34;;;19.87;51.63
38630;BME280;24384;51.988;4.644;2023-05-25T12:28:14;102976.41;;;19.99;50.61
38630;BME280;24384;51.988;4.644;2023-05-25T12:30:41;102968.50;;;19.96;50.94
38630;BME280;24384;51.988;4.644;2023-05-25T12:33:06;102966.91;;;20.14;51.76
38630;BME280;24384;51.988;4.644;2023-05-25T12:35:46;102964.66;;;20.48;51.60
38630;BME280;24384;51.988;4.644;2023-05-25T12:38:12;102961.28;;;20.65;50.58
38630;BME280;24384;51.988;4.644;2023-05-25T12:40:39;102958.25;;;20.95;49.76
38630;BME280;24384;51.988;4.644;2023-05-25T12:43:05;102967.75;;;20.81;48.44
38630;BME280;24384;51.988;4.644;2023-05-25T12:45:30;102972.53;;;20.74;48.67
38630;BME280;24384;51.988;4.644;2023-05-25T12:47:56;102966.91;;;20.81;50.03
38630;BME280;24384;51.988;4.644;2023-05-25T12:50:21;102963.25;;;20.82;49.59
38630;BME280;24384;51.988;4.644;2023-05-25T12:52:47;102979.97;;;20.88;49.45
38630;BME280;24384;51.988;4.644;2023-05-25T12:55:30;102961.88;;;20.73;50.08
38630;BME280;24384;51.988;4.644;2023-05-25T12:57:58;102967.66;;;20.62;49.75
38630;BME280;24384;51.988;4.644;2023-05-25T13:00:35;102963.59;;;20.74;48.63